Time;durP1;ratioP1;P1;durP2;ratioP2;P2;SDS_P1;SDS_P2;PMS_P1;PMS_P2;Temp;Humidity;BMP_temperature;BMP_pressure;BME280_temperature;BME280_humidity;BME280_pressure;Samples;Min_cycle;Max_cycle;Signal;HPM_P1;HPM_P2
2022/01/17 00:01:46;;;;;;;4.40;3.67;;;;;;;;;;5003148;28;20037;-39
2022/01/17 00:04:12;;;;;;;4.90;3.30;;;;;;;;;;5006495;28;20039;-33
2022/01/17 00:06:39;;;;;;;4.78;3.63;;;;;;;;;;5006081;28;20030;-38
2022/01/17 00:09:05;;;;;;;3.80;3.13;;;;;;;;;;5005102;28;20040;-39
2022/01/17 00:11:58;;;;;;;4.90;3.65;;;;;;;;;;5016667;28;20490;-40
2022/01/17 00:15:20;;;;;;;4.22;3.35;;;;;;;;;;5004699;28;20042;-37
2022/01/17 00:17:50;;;;;;;4.13;3.55;;;;;;;;;;5005706;28;20053;-36
2022/01/17 00:20:18;;;;;;;4.90;3.58;;;;;;;;;;4988728;28;20049;-37
2022/01/17 00:22:45;;;;;;;4.57;3.50;;;;;;;;;;4986485;28;20137;-37
2022/01/17 00:25:10;;;;;;;4.13;3.30;;;;;;;;;;4986694;28;20463;-36
2022/01/17 00:27:36;;;;;;;3.78;3.38;;;;;;;;;;4986788;28;20026;-38
2022/01/17 00:30:03;;;;;;;3.78;3.28;;;;;;;;;;4986981;28;20026;-37
2022/01/17 00:32:29;;;;;;;4.57;3.35;;;;;;;;;;4986617;28;20101;-37
2022/01/17 00:34:55;;;;;;;4.07;3.25;;;;;;;;;;4986290;28;20068;-39
2022/01/17 00:37:20;;;;;;;5.03;3.38;;;;;;;;;;4986289;28;20018;-39
2022/01/17 00:39:46;;;;;;;4.43;3.72;;;;;;;;;;4986405;28;20029;-39
2022/01/17 00:42:11;;;;;;;5.63;3.47;;;;;;;;;;4986657;28;20057;-38
2022/01/17 00:44:37;;;;;;;4.68;3.25;;;;;;;;;;4986271;28;20030;-37
2022/01/17 00:47:03;;;;;;;4.43;3.20;;;;;;;;;;4986937;28;20065;-39
2022/01/17 00:49:28;;;;;;;4.35;3.10;;;;;;;;;;4986146;28;20113;-33
2022/01/17 00:51:54;;;;;;;5.15;3.75;;;;;;;;;;4985652;28;20066;-39
2022/01/17 00:54:19;;;;;;;4.90;3.92;;;;;;;;;;4986569;28;20117;-33
2022/01/17 00:56:45;;;;;;;4.10;3.38;;;;;;;;;;4986525;28;20056;-40
2022/01/17 00:59:10;;;;;;;3.83;3.40;;;;;;;;;;4985705;28;20022;-39
2022/01/17 01:01:36;;;;;;;3.55;3.13;;;;;;;;;;5005762;28;20030;-38
2022/01/17 01:04:01;;;;;;;4.60;3.35;;;;;;;;;;5005968;28;20572;-39
2022/01/17 01:06:27;;;;;;;4.40;3.60;;;;;;;;;;5005754;28;20107;-38
2022/01/17 01:08:52;;;;;;;3.67;3.30;;;;;;;;;;5005096;28;20084;-36
2022/01/17 01:11:18;;;;;;;4.63;3.58;;;;;;;;;;5005598;28;20096;-38
2022/01/17 01:13:44;;;;;;;3.85;3.08;;;;;;;;;;5005663;28;20033;-38
2022/01/17 01:29:31;;;;;;;4.60;3.50;;;;;;;;;;4986190;28;20045;-36
2022/01/17 01:32:07;;;;;;;3.92;3.45;;;;;;;;;;4986131;28;20022;-38
2022/01/17 01:34:43;;;;;;;5.28;4.05;;;;;;;;;;4992222;28;20056;-37
2022/01/17 01:37:08;;;;;;;5.53;4.20;;;;;;;;;;4987108;28;20027;-39
2022/01/17 01:39:34;;;;;;;5.45;4.10;;;;;;;;;;4985997;28;20084;-36
2022/01/17 01:42:00;;;;;;;4.78;3.70;;;;;;;;;;4994489;28;20030;-37
2022/01/17 01:44:26;;;;;;;5.32;3.95;;;;;;;;;;5005092;28;20556;-34
2022/01/17 01:46:52;;;;;;;5.13;4.03;;;;;;;;;;5005513;28;20080;-37
2022/01/17 01:49:18;;;;;;;4.57;3.70;;;;;;;;;;5005704;28;20037;-39
2022/01/17 01:51:44;;;;;;;5.32;3.85;;;;;;;;;;5005191;28;20038;-34
2022/01/17 01:54:10;;;;;;;5.03;3.97;;;;;;;;;;5005269;28;20029;-38
2022/01/17 01:56:37;;;;;;;5.38;4.10;;;;;;;;;;5004886;28;20084;-37
2022/01/17 01:59:03;;;;;;;4.70;3.72;;;;;;;;;;5003815;28;20049;-37
2022/01/17 02:01:28;;;;;;;5.32;4.30;;;;;;;;;;5005085;28;20034;-39
2022/01/17 02:03:54;;;;;;;4.57;3.90;;;;;;;;;;5005226;28;20107;-39
2022/01/17 02:06:20;;;;;;;5.18;4.10;;;;;;;;;;5004349;28;20026;-39
2022/01/17 02:08:45;;;;;;;5.65;4.20;;;;;;;;;;5004993;28;20109;-33
2022/01/17 02:11:11;;;;;;;4.78;3.90;;;;;;;;;;5007355;28;20029;-38
2022/01/17 02:13:38;;;;;;;4.57;3.67;;;;;;;;;;5008714;28;20029;-36
2022/01/17 02:16:04;;;;;;;4.53;3.70;;;;;;;;;;5009430;28;20029;-39
2022/01/17 02:18:31;;;;;;;5.68;4.10;;;;;;;;;;5007369;28;20033;-36
2022/01/17 02:23:42;;;;;;;7.72;4.40;;;;;;;;;;5007491;28;20034;-38
2022/01/17 02:26:08;;;;;;;5.13;3.95;;;;;;;;;;5008731;28;20030;-39
2022/01/17 02:28:34;;;;;;;5.20;4.03;;;;;;;;;;5008408;28;20109;-38
2022/01/17 02:31:04;;;;;;;6.93;4.28;;;;;;;;;;5009024;28;20029;-39
2022/01/17 02:33:30;;;;;;;5.00;3.80;;;;;;;;;;5008439;28;20046;-35
2022/01/17 02:35:56;;;;;;;4.97;3.90;;;;;;;;;;5008701;28;20030;-36
2022/01/17 02:38:21;;;;;;;4.18;3.67;;;;;;;;;;5008643;28;20037;-36
2022/01/17 02:40:49;;;;;;;5.32;4.13;;;;;;;;;;5008320;28;20021;-36
2022/01/17 02:43:17;;;;;;;4.72;3.55;;;;;;;;;;5008767;28;20240;-36
2022/01/17 02:48:18;;;;;;;5.07;3.92;;;;;;;;;;5008630;28;20092;-38
2022/01/17 02:50:43;;;;;;;5.30;3.97;;;;;;;;;;5008341;28;20029;-38
2022/01/17 02:53:09;;;;;;;5.50;4.05;;;;;;;;;;5008413;28;20029;-34
2022/01/17 02:55:35;;;;;;;4.85;3.72;;;;;;;;;;5008048;28;20065;-36
2022/01/17 02:58:00;;;;;;;4.40;3.65;;;;;;;;;;5007476;28;20034;-39
2022/01/17 03:00:26;;;;;;;4.93;3.45;;;;;;;;;;5008284;28;20037;-36
2022/01/17 03:02:52;;;;;;;5.57;3.60;;;;;;;;;;5008203;28;20502;-38
2022/01/17 03:05:17;;;;;;;4.88;3.97;;;;;;;;;;5008065;28;20095;-38
2022/01/17 03:07:43;;;;;;;4.45;3.70;;;;;;;;;;5007733;28;20033;-40
2022/01/17 03:10:18;;;;;;;4.65;3.88;;;;;;;;;;5007711;28;20030;-39
2022/01/17 03:12:43;;;;;;;6.20;4.00;;;;;;;;;;5001900;28;20026;-38
2022/01/17 03:15:09;;;;;;;3.85;3.35;;;;;;;;;;4987941;28;20065;-37
2022/01/17 03:17:35;;;;;;;4.40;3.47;;;;;;;;;;4988365;28;20041;-37
2022/01/17 03:20:00;;;;;;;4.10;3.45;;;;;;;;;;4988171;28;20042;-36
2022/01/17 03:22:26;;;;;;;3.38;3.00;;;;;;;;;;4987540;28;20027;-38
2022/01/17 03:24:51;;;;;;;4.60;3.65;;;;;;;;;;4988572;28;20793;-40
2022/01/17 03:27:18;;;;;;;3.75;3.35;;;;;;;;;;4988157;28;20041;-39
2022/01/17 03:29:44;;;;;;;4.53;3.63;;;;;;;;;;4987881;28;20026;-34
2022/01/17 03:32:09;;;;;;;4.40;3.58;;;;;;;;;;4988320;28;20084;-36
2022/01/17 03:34:36;;;;;;;4.72;3.40;;;;;;;;;;4987461;28;20424;-35
2022/01/17 03:37:02;;;;;;;4.10;3.22;;;;;;;;;;4987606;28;20039;-40
2022/01/17 03:39:27;;;;;;;4.00;3.20;;;;;;;;;;4987779;28;20085;-36
2022/01/17 03:41:53;;;;;;;3.85;3.33;;;;;;;;;;4987735;28;20023;-39
2022/01/17 03:44:19;;;;;;;4.15;3.35;;;;;;;;;;4987717;28;20036;-34
2022/01/17 03:46:44;;;;;;;3.60;3.00;;;;;;;;;;4987696;28;20034;-40
2022/01/17 03:49:10;;;;;;;4.07;3.00;;;;;;;;;;4987415;28;20041;-37
2022/01/17 03:51:35;;;;;;;4.32;3.40;;;;;;;;;;4987241;28;20547;-41
2022/01/17 03:54:01;;;;;;;3.55;2.90;;;;;;;;;;4987412;28;20338;-38
2022/01/17 03:56:26;;;;;;;4.18;3.50;;;;;;;;;;4987644;28;20084;-40
2022/01/17 03:58:51;;;;;;;3.75;3.03;;;;;;;;;;4987829;28;20105;-37
2022/01/17 04:01:19;;;;;;;4.22;3.28;;;;;;;;;;4987933;28;20019;-37
2022/01/17 04:03:46;;;;;;;4.00;3.05;;;;;;;;;;4987429;28;20038;-36
2022/01/17 04:06:14;;;;;;;3.78;2.90;;;;;;;;;;4987265;28;20481;-39
2022/01/17 04:08:40;;;;;;;3.58;2.80;;;;;;;;;;4986556;28;20030;-40
2022/01/17 04:11:05;;;;;;;4.18;3.05;;;;;;;;;;4986315;28;20037;-36
2022/01/17 04:13:32;;;;;;;3.33;2.83;;;;;;;;;;4987294;28;20053;-38
2022/01/17 04:15:58;;;;;;;3.22;2.70;;;;;;;;;;4987194;28;20026;-38
2022/01/17 04:18:24;;;;;;;3.10;2.70;;;;;;;;;;4986928;28;20034;-37
2022/01/17 04:20:50;;;;;;;3.05;2.58;;;;;;;;;;4987013;28;20088;-38
2022/01/17 04:23:15;;;;;;;2.80;2.50;;;;;;;;;;4986845;28;20496;-39
2022/01/17 04:25:42;;;;;;;3.08;2.65;;;;;;;;;;5004880;28;20038;-40
2022/01/17 04:28:08;;;;;;;3.08;2.75;;;;;;;;;;5006757;28;20026;-35
2022/01/17 04:30:33;;;;;;;3.15;2.50;;;;;;;;;;5006285;28;20565;-37
2022/01/17 04:32:59;;;;;;;3.20;2.53;;;;;;;;;;5006338;28;20058;-39
2022/01/17 04:35:25;;;;;;;3.10;2.80;;;;;;;;;;5005523;28;20034;-36
2022/01/17 04:37:56;;;;;;;3.78;3.03;;;;;;;;;;5004610;28;20018;-37
2022/01/17 04:40:22;;;;;;;3.15;2.38;;;;;;;;;;5006296;28;20041;-35
2022/01/17 04:42:49;;;;;;;3.13;2.30;;;;;;;;;;5005962;28;20460;-37
2022/01/17 04:45:17;;;;;;;2.67;2.40;;;;;;;;;;5006411;28;20029;-35
2022/01/17 04:47:45;;;;;;;2.60;2.28;;;;;;;;;;5006446;28;20404;-34
2022/01/17 04:50:14;;;;;;;3.35;2.60;;;;;;;;;;5005425;28;20104;-38
2022/01/17 04:52:39;;;;;;;2.65;2.38;;;;;;;;;;5005939;28;20041;-38
2022/01/17 04:55:08;;;;;;;3.13;2.72;;;;;;;;;;5006093;28;20060;-36
2022/01/17 04:57:33;;;;;;;3.53;2.58;;;;;;;;;;5006150;28;20469;-36
2022/01/17 04:59:59;;;;;;;3.30;2.45;;;;;;;;;;5006340;28;20029;-38
2022/01/17 05:02:24;;;;;;;2.72;2.17;;;;;;;;;;5005333;28;20061;-37
2022/01/17 05:04:51;;;;;;;2.67;2.28;;;;;;;;;;5005994;28;20527;-37
2022/01/17 05:07:16;;;;;;;2.95;2.15;;;;;;;;;;5006127;28;20025;-36
2022/01/17 05:09:43;;;;;;;3.50;2.28;;;;;;;;;;5005612;28;20052;-36
2022/01/17 05:12:09;;;;;;;2.78;2.20;;;;;;;;;;4994946;28;20488;-39
2022/01/17 05:14:35;;;;;;;10.63;3.25;;;;;;;;;;5005313;28;20535;-40
2022/01/17 05:17:23;;;;;;;8.98;3.00;;;;;;;;;;5002122;28;20028;-38
2022/01/17 05:19:49;;;;;;;9.13;2.90;;;;;;;;;;4994964;28;20471;-38
2022/01/17 05:22:16;;;;;;;10.05;2.88;;;;;;;;;;4997264;28;20117;-39
2022/01/17 05:24:41;;;;;;;9.63;2.53;;;;;;;;;;4991486;28;20034;-36
2022/01/17 05:27:07;;;;;;;5.32;2.60;;;;;;;;;;4996769;28;20033;-36
2022/01/17 05:29:33;;;;;;;7.53;2.47;;;;;;;;;;4991952;28;20036;-39
2022/01/17 05:31:58;;;;;;;8.27;2.40;;;;;;;;;;4988367;28;20045;-39
2022/01/17 05:34:24;;;;;;;9.73;2.30;;;;;;;;;;4995644;28;20056;-39
2022/01/17 05:36:49;;;;;;;7.93;2.10;;;;;;;;;;5001828;28;20033;-35
2022/01/17 05:39:15;;;;;;;7.07;2.75;;;;;;;;;;4994374;28;20556;-39
2022/01/17 05:41:41;;;;;;;13.27;2.60;;;;;;;;;;4992856;28;20033;-36
2022/01/17 05:44:06;;;;;;;12.55;2.45;;;;;;;;;;5001253;28;20644;-36
2022/01/17 05:46:32;;;;;;;17.75;2.67;;;;;;;;;;5003031;28;20100;-40
2022/01/17 05:48:58;;;;;;;11.98;2.67;;;;;;;;;;4989684;28;20034;-35
2022/01/17 05:51:23;;;;;;;11.82;2.58;;;;;;;;;;4983202;28;20081;-39
2022/01/17 05:53:49;;;;;;;12.27;2.50;;;;;;;;;;4983465;28;20045;-38
2022/01/17 05:56:14;;;;;;;3.53;2.17;;;;;;;;;;4983765;28;20444;-41
2022/01/17 05:58:40;;;;;;;10.80;2.80;;;;;;;;;;4983424;28;20031;-41
2022/01/17 06:01:06;;;;;;;6.70;2.33;;;;;;;;;;4987280;28;20076;-40
2022/01/17 06:03:32;;;;;;;5.75;2.60;;;;;;;;;;4997444;28;20042;-40
2022/01/17 06:05:57;;;;;;;5.00;2.38;;;;;;;;;;4989103;28;20034;-39
2022/01/17 06:08:23;;;;;;;8.52;2.90;;;;;;;;;;4992402;28;20029;-40
2022/01/17 06:10:48;;;;;;;5.97;2.55;;;;;;;;;;5011008;28;20578;-38
2022/01/17 06:13:14;;;;;;;7.22;2.10;;;;;;;;;;4995527;28;20037;-40
2022/01/17 06:15:39;;;;;;;10.55;2.47;;;;;;;;;;4993575;28;20049;-38
2022/01/17 06:18:05;;;;;;;3.65;2.00;;;;;;;;;;5007913;28;20415;-40
2022/01/17 06:20:30;;;;;;;6.50;2.53;;;;;;;;;;5010643;28;20503;-37
2022/01/17 06:22:56;;;;;;;7.25;2.22;;;;;;;;;;5000746;28;20084;-38
2022/01/17 06:25:21;;;;;;;10.73;2.40;;;;;;;;;;5000000;28;20048;-38
2022/01/17 06:27:47;;;;;;;4.60;2.53;;;;;;;;;;5000763;28;20069;-37
2022/01/17 06:30:15;;;;;;;5.57;2.38;;;;;;;;;;4997469;28;20096;-38
2022/01/17 06:32:41;;;;;;;13.18;2.30;;;;;;;;;;4998263;28;20014;-34
2022/01/17 06:35:07;;;;;;;4.80;2.30;;;;;;;;;;5002014;28;20037;-34
2022/01/17 06:37:33;;;;;;;9.43;2.58;;;;;;;;;;5002844;28;20021;-36
2022/01/17 06:39:58;;;;;;;3.70;2.38;;;;;;;;;;5002806;28;20030;-34
2022/01/17 06:42:24;;;;;;;8.85;2.97;;;;;;;;;;5007350;28;20439;-38
2022/01/17 06:44:50;;;;;;;12.48;3.00;;;;;;;;;;5011198;28;20037;-35
2022/01/17 06:47:16;;;;;;;5.32;3.10;;;;;;;;;;5009321;28;20033;-36
2022/01/17 06:49:42;;;;;;;7.45;3.03;;;;;;;;;;5002498;28;20474;-38
2022/01/17 06:52:07;;;;;;;6.13;2.33;;;;;;;;;;5003840;28;20106;-37
2022/01/17 06:54:33;;;;;;;5.53;2.90;;;;;;;;;;5004221;28;20482;-36
2022/01/17 06:56:59;;;;;;;4.63;2.42;;;;;;;;;;5002901;28;20308;-39
2022/01/17 06:59:24;;;;;;;4.75;2.30;;;;;;;;;;5007798;28;20029;-40
2022/01/17 07:01:50;;;;;;;7.20;2.47;;;;;;;;;;5007578;28;20033;-37
2022/01/17 07:04:15;;;;;;;3.67;2.30;;;;;;;;;;5006513;28;20032;-38
2022/01/17 07:06:41;;;;;;;5.18;2.05;;;;;;;;;;5006455;28;20131;-39
2022/01/17 07:09:09;;;;;;;7.18;2.30;;;;;;;;;;5006281;28;20045;-36
2022/01/17 07:11:39;;;;;;;5.28;2.33;;;;;;;;;;5006557;28;20134;-36
2022/01/17 07:14:08;;;;;;;8.32;2.50;;;;;;;;;;5006818;28;20030;-39
2022/01/17 07:16:35;;;;;;;8.25;2.70;;;;;;;;;;5002136;28;20488;-40
2022/01/17 07:19:01;;;;;;;5.57;2.50;;;;;;;;;;4985847;28;20057;-38
2022/01/17 07:21:26;;;;;;;5.07;2.30;;;;;;;;;;4988086;28;20042;-38
2022/01/17 07:23:52;;;;;;;6.32;2.72;;;;;;;;;;4987810;28;20309;-36
2022/01/17 07:26:17;;;;;;;6.78;3.17;;;;;;;;;;4987885;28;20030;-39
2022/01/17 07:28:43;;;;;;;5.22;2.40;;;;;;;;;;4987634;28;20034;-35
2022/01/17 07:31:08;;;;;;;3.95;2.45;;;;;;;;;;4988026;28;20610;-37
2022/01/17 07:33:37;;;;;;;7.10;2.80;;;;;;;;;;4987612;28;20676;-37
2022/01/17 07:36:04;;;;;;;3.53;2.33;;;;;;;;;;4987700;28;20042;-38
2022/01/17 07:38:30;;;;;;;5.18;2.42;;;;;;;;;;4987289;28;20031;-38
2022/01/17 07:40:55;;;;;;;4.63;3.15;;;;;;;;;;4987848;28;20034;-36
2022/01/17 07:43:21;;;;;;;3.83;2.50;;;;;;;;;;4987140;28;20261;-36
2022/01/17 07:46:02;;;;;;;4.82;2.70;;;;;;;;;;4987357;28;20018;-40
2022/01/17 07:48:56;;;;;;;5.30;2.45;;;;;;;;;;4987066;28;20068;-39
2022/01/17 07:51:23;;;;;;;5.15;2.60;;;;;;;;;;4987651;28;20121;-34
2022/01/17 07:53:48;;;;;;;3.97;2.80;;;;;;;;;;4987167;28;20117;-40
2022/01/17 07:56:14;;;;;;;4.68;2.70;;;;;;;;;;4987338;28;20038;-35
2022/01/17 07:58:41;;;;;;;7.55;3.08;;;;;;;;;;4986941;28;20034;-39
2022/01/17 08:01:06;;;;;;;5.53;2.83;;;;;;;;;;4987523;28;20030;-36
2022/01/17 08:03:33;;;;;;;3.90;2.72;;;;;;;;;;4986832;28;20408;-39
2022/01/17 08:05:59;;;;;;;6.63;2.63;;;;;;;;;;4987109;28;20090;-38
2022/01/17 08:08:24;;;;;;;4.30;3.10;;;;;;;;;;4986392;28;20940;-37
2022/01/17 08:10:50;;;;;;;5.22;2.83;;;;;;;;;;4985932;28;20138;-34
2022/01/17 08:13:15;;;;;;;9.20;3.03;;;;;;;;;;4986997;28;20089;-37
2022/01/17 08:15:42;;;;;;;4.82;3.20;;;;;;;;;;4986865;28;20022;-40
2022/01/17 08:18:07;;;;;;;4.90;3.30;;;;;;;;;;4987160;28;20034;-40
2022/01/17 08:20:33;;;;;;;5.60;3.05;;;;;;;;;;4986847;28;20080;-34
2022/01/17 08:22:58;;;;;;;7.63;3.30;;;;;;;;;;4986714;28;20034;-37
2022/01/17 08:25:24;;;;;;;5.35;2.58;;;;;;;;;;4986365;28;20098;-40
2022/01/17 08:27:50;;;;;;;4.20;2.92;;;;;;;;;;4985748;28;20022;-37
2022/01/17 08:30:15;;;;;;;4.10;3.20;;;;;;;;;;4986861;28;20058;-39
2022/01/17 08:32:41;;;;;;;4.97;3.00;;;;;;;;;;4986795;28;20114;-36
2022/01/17 08:35:07;;;;;;;4.07;2.80;;;;;;;;;;4986751;28;20030;-38
2022/01/17 08:37:32;;;;;;;4.30;2.92;;;;;;;;;;4986855;28;20053;-34
2022/01/17 08:39:59;;;;;;;4.00;2.90;;;;;;;;;;4986704;28;20112;-34
2022/01/17 08:42:25;;;;;;;4.90;2.80;;;;;;;;;;4985633;28;20578;-40
2022/01/17 08:44:51;;;;;;;6.72;2.80;;;;;;;;;;4985757;28;20030;-37
2022/01/17 08:47:17;;;;;;;5.38;2.78;;;;;;;;;;4985619;28;20404;-36
2022/01/17 08:49:43;;;;;;;4.90;2.92;;;;;;;;;;4986696;28;20029;-39
2022/01/17 08:52:09;;;;;;;5.40;3.13;;;;;;;;;;4986831;28;20860;-39
2022/01/17 08:54:35;;;;;;;3.92;2.90;;;;;;;;;;4986330;28;20030;-39
2022/01/17 08:57:00;;;;;;;2.90;2.28;;;;;;;;;;4986678;28;20033;-38
2022/01/17 08:59:28;;;;;;;3.28;2.50;;;;;;;;;;4986605;28;20444;-35
2022/01/17 09:01:54;;;;;;;4.57;2.38;;;;;;;;;;5001234;28;20037;-38
2022/01/17 09:04:19;;;;;;;5.47;2.97;;;;;;;;;;5005970;28;20033;-37
2022/01/17 09:06:46;;;;;;;5.15;2.38;;;;;;;;;;5005919;28;20080;-34
2022/01/17 09:09:11;;;;;;;3.80;2.45;;;;;;;;;;5006178;28;20507;-40
2022/01/17 09:11:37;;;;;;;4.85;3.03;;;;;;;;;;5004541;28;20049;-37
2022/01/17 09:14:02;;;;;;;3.78;2.70;;;;;;;;;;5006027;28;20484;-39
2022/01/17 09:16:28;;;;;;;2.88;2.08;;;;;;;;;;5000680;28;20093;-33
2022/01/17 09:18:53;;;;;;;4.50;2.60;;;;;;;;;;4986107;28;20030;-36
2022/01/17 09:21:19;;;;;;;3.40;2.55;;;;;;;;;;4985582;28;20026;-34
2022/01/17 09:23:44;;;;;;;2.83;2.25;;;;;;;;;;4986310;28;20034;-37
2022/01/17 09:26:10;;;;;;;3.28;2.40;;;;;;;;;;4985354;28;20491;-38
2022/01/17 09:28:36;;;;;;;5.10;2.63;;;;;;;;;;4985647;28;20041;-33
2022/01/17 09:31:01;;;;;;;3.85;2.60;;;;;;;;;;4986209;28;20041;-38
2022/01/17 09:33:27;;;;;;;4.50;2.55;;;;;;;;;;4986262;28;20288;-40
2022/01/17 09:35:53;;;;;;;4.32;2.85;;;;;;;;;;4985694;28;20092;-37
2022/01/17 09:38:18;;;;;;;3.10;2.50;;;;;;;;;;4985967;28;20041;-39
2022/01/17 09:40:44;;;;;;;4.45;2.22;;;;;;;;;;4985865;28;20449;-37
2022/01/17 09:43:09;;;;;;;3.35;2.45;;;;;;;;;;4985737;28;20041;-36
2022/01/17 09:45:35;;;;;;;3.85;2.50;;;;;;;;;;4985560;28;20409;-38
2022/01/17 09:48:02;;;;;;;3.15;2.42;;;;;;;;;;4986001;28;20031;-40
2022/01/17 09:50:45;;;;;;;4.07;2.45;;;;;;;;;;4984657;28;20027;-36
2022/01/17 09:53:10;;;;;;;3.47;2.40;;;;;;;;;;4985455;28;20085;-38
2022/01/17 09:55:36;;;;;;;3.20;2.25;;;;;;;;;;4982846;28;20026;-37
2022/01/17 09:58:06;;;;;;;2.97;2.53;;;;;;;;;;4968465;28;20104;-37
2022/01/17 10:00:34;;;;;;;3.42;2.22;;;;;;;;;;4985448;28;20038;-38
2022/01/17 10:03:02;;;;;;;3.25;2.58;;;;;;;;;;4985438;28;20134;-37
2022/01/17 10:05:28;;;;;;;3.88;2.45;;;;;;;;;;4985170;28;20054;-38
2022/01/17 10:08:01;;;;;;;3.30;2.40;;;;;;;;;;4985640;28;20116;-34
2022/01/17 10:10:39;;;;;;;3.20;2.40;;;;;;;;;;4985704;28;20892;-38
2022/01/17 10:13:13;;;;;;;4.88;2.50;;;;;;;;;;4985603;28;20094;-39
2022/01/17 10:15:49;;;;;;;2.85;2.28;;;;;;;;;;4985611;28;20026;-36
2022/01/17 10:18:54;;;;;;;3.10;2.20;;;;;;;;;;5004772;28;20030;-39
2022/01/17 10:21:41;;;;;;;3.53;2.33;;;;;;;;;;4988690;28;20047;-37
2022/01/17 10:37:16;;;;;;;3.33;2.60;;;;;;;;;;4989248;28;20046;-37
2022/01/17 10:39:51;;;;;;;2.50;2.10;;;;;;;;;;4989147;28;20034;-35
2022/01/17 10:42:47;;;;;;;4.03;2.40;;;;;;;;;;4989151;28;20030;-35
2022/01/17 10:45:16;;;;;;;3.70;2.38;;;;;;;;;;4989130;28;20054;-38
2022/01/17 10:47:45;;;;;;;3.08;2.33;;;;;;;;;;4988785;28;20085;-37
2022/01/17 10:50:23;;;;;;;3.35;2.30;;;;;;;;;;4988881;28;20150;-39
2022/01/17 10:52:50;;;;;;;3.67;2.40;;;;;;;;;;4988735;28;20128;-35
2022/01/17 10:55:20;;;;;;;3.47;2.20;;;;;;;;;;5003709;28;20042;-34
2022/01/17 10:57:50;;;;;;;4.15;2.78;;;;;;;;;;4988742;28;20057;-36
2022/01/17 11:00:45;;;;;;;4.57;2.70;;;;;;;;;;4988740;28;20022;-37
2022/01/17 11:03:12;;;;;;;3.28;2.58;;;;;;;;;;4989994;28;20142;-33
2022/01/17 11:05:39;;;;;;;2.83;2.20;;;;;;;;;;4993892;28;20046;-38
2022/01/17 11:08:05;;;;;;;3.30;2.00;;;;;;;;;;4988070;28;20023;-39
2022/01/17 11:10:32;;;;;;;3.28;2.50;;;;;;;;;;5007925;28;20040;-37
2022/01/17 11:13:00;;;;;;;3.75;2.80;;;;;;;;;;5003334;28;20034;-37
2022/01/17 11:15:25;;;;;;;4.43;2.70;;;;;;;;;;4997471;28;20046;-36
2022/01/17 11:17:54;;;;;;;3.35;2.50;;;;;;;;;;4998986;28;20041;-36
2022/01/17 11:20:21;;;;;;;4.20;2.75;;;;;;;;;;4996694;28;20026;-38
2022/01/17 11:22:49;;;;;;;5.90;2.65;;;;;;;;;;4992944;28;20477;-38
2022/01/17 11:25:23;;;;;;;4.50;2.80;;;;;;;;;;4993681;28;20049;-36
2022/01/17 11:27:49;;;;;;;7.22;2.92;;;;;;;;;;4996727;28;20108;-38
2022/01/17 11:30:16;;;;;;;4.55;2.95;;;;;;;;;;4988455;28;20027;-35
2022/01/17 11:32:43;;;;;;;18.48;2.83;;;;;;;;;;4985312;28;20615;-37
2022/01/17 11:35:09;;;;;;;4.00;2.40;;;;;;;;;;4985690;28;20088;-35
2022/01/17 11:37:39;;;;;;;6.07;2.50;;;;;;;;;;4986184;28;20093;-37
2022/01/17 11:40:06;;;;;;;9.40;3.13;;;;;;;;;;4985584;28;20034;-37
2022/01/17 11:42:32;;;;;;;3.92;2.50;;;;;;;;;;4985463;28;20093;-38
2022/01/17 11:44:58;;;;;;;4.28;2.45;;;;;;;;;;4985129;28;20030;-36
2022/01/17 11:47:46;;;;;;;9.02;2.70;;;;;;;;;;4992920;28;20034;-36
2022/01/17 11:50:34;;;;;;;5.65;2.53;;;;;;;;;;5004301;28;20121;-36
2022/01/17 11:53:12;;;;;;;4.18;2.63;;;;;;;;;;5004648;28;20037;-37
2022/01/17 11:55:41;;;;;;;10.52;2.53;;;;;;;;;;5004345;28;20030;-37
2022/01/17 11:58:26;;;;;;;5.60;2.47;;;;;;;;;;5004798;28;20034;-32
2022/01/17 12:00:57;;;;;;;6.18;2.92;;;;;;;;;;5005430;28;20038;-37
2022/01/17 12:03:45;;;;;;;9.43;3.40;;;;;;;;;;5004816;28;20030;-36
2022/01/17 12:06:35;;;;;;;10.40;3.10;;;;;;;;;;5004659;28;20574;-36
2022/01/17 12:09:21;;;;;;;8.32;2.60;;;;;;;;;;5019866;28;20030;-37
2022/01/17 12:12:14;;;;;;;6.63;2.40;;;;;;;;;;5004934;28;20038;-37
2022/01/17 12:14:43;;;;;;;10.15;2.95;;;;;;;;;;5005832;28;20038;-34
2022/01/17 12:17:25;;;;;;;6.18;2.30;;;;;;;;;;4991021;28;20026;-36
2022/01/17 12:20:07;;;;;;;8.10;2.47;;;;;;;;;;4985134;28;20042;-37
2022/01/17 12:22:33;;;;;;;10.75;2.78;;;;;;;;;;4984444;28;20062;-37
2022/01/17 12:25:00;;;;;;;10.02;2.50;;;;;;;;;;4985145;28;20034;-38
2022/01/17 12:27:26;;;;;;;6.90;2.83;;;;;;;;;;4985567;28;20476;-33
2022/01/17 12:30:08;;;;;;;6.32;2.22;;;;;;;;;;4984564;28;20642;-37
2022/01/17 12:32:36;;;;;;;6.57;3.28;;;;;;;;;;4984103;28;20042;-36
2022/01/17 12:35:04;;;;;;;7.47;2.35;;;;;;;;;;4985300;28;20666;-38
2022/01/17 12:37:39;;;;;;;5.53;2.40;;;;;;;;;;4985084;28;20037;-36
2022/01/17 12:40:14;;;;;;;3.45;2.28;;;;;;;;;;4984165;28;20038;-38
2022/01/17 12:42:53;;;;;;;12.10;2.42;;;;;;;;;;4984607;28;20658;-37
2022/01/17 12:45:28;;;;;;;9.60;2.95;;;;;;;;;;4984815;28;20060;-35
2022/01/17 12:47:54;;;;;;;4.55;2.28;;;;;;;;;;4983926;28;20035;-34
2022/01/17 12:50:20;;;;;;;4.60;2.03;;;;;;;;;;4984705;28;20347;-35
2022/01/17 12:52:46;;;;;;;5.50;2.50;;;;;;;;;;4983079;28;20030;-39
2022/01/17 12:55:12;;;;;;;6.50;2.20;;;;;;;;;;4983180;28;20096;-38
2022/01/17 12:57:42;;;;;;;4.38;2.55;;;;;;;;;;4983997;28;20040;-38
2022/01/17 13:00:19;;;;;;;5.05;2.30;;;;;;;;;;4984355;28;20038;-35
2022/01/17 13:02:46;;;;;;;5.28;2.42;;;;;;;;;;4984252;28;20076;-35
2022/01/17 13:05:11;;;;;;;5.05;2.50;;;;;;;;;;4984232;28;20030;-35
2022/01/17 13:07:41;;;;;;;5.63;2.42;;;;;;;;;;4983926;28;20566;-38
2022/01/17 13:10:08;;;;;;;6.45;2.58;;;;;;;;;;4984310;28;20033;-36
2022/01/17 13:12:34;;;;;;;5.35;2.25;;;;;;;;;;4986139;28;20026;-37
2022/01/17 13:14:59;;;;;;;3.28;2.10;;;;;;;;;;4991584;28;20030;-39
2022/01/17 13:17:25;;;;;;;4.00;2.20;;;;;;;;;;4996362;28;20550;-36
2022/01/17 13:19:51;;;;;;;5.03;2.55;;;;;;;;;;4996006;28;20053;-40
2022/01/17 13:22:20;;;;;;;6.13;2.28;;;;;;;;;;4991790;28;20038;-38
2022/01/17 13:24:54;;;;;;;4.50;2.38;;;;;;;;;;4992664;28;20119;-36
2022/01/17 13:27:20;;;;;;;4.85;2.13;;;;;;;;;;4988807;28;20396;-40
2022/01/17 13:29:46;;;;;;;6.70;2.80;;;;;;;;;;4989435;28;20022;-37
2022/01/17 13:32:12;;;;;;;3.78;2.08;;;;;;;;;;4994145;28;20029;-39
2022/01/17 13:34:38;;;;;;;6.40;2.10;;;;;;;;;;4998729;28;20778;-31
2022/01/17 13:37:05;;;;;;;3.45;2.42;;;;;;;;;;4991554;28;20170;-35
2022/01/17 13:39:30;;;;;;;9.07;3.53;;;;;;;;;;4989454;28;20409;-35
2022/01/17 13:42:00;;;;;;;8.43;4.72;;;;;;;;;;4994050;28;20033;-32
2022/01/17 13:44:27;;;;;;;6.13;3.88;;;;;;;;;;5000931;28;20066;-38
2022/01/17 13:46:53;;;;;;;6.50;4.18;;;;;;;;;;5002522;28;20095;-38
2022/01/17 13:49:18;;;;;;;13.25;4.70;;;;;;;;;;5001507;28;20030;-35
2022/01/17 13:51:45;;;;;;;9.55;4.72;;;;;;;;;;5000902;28;20026;-36
2022/01/17 13:54:11;;;;;;;8.15;4.35;;;;;;;;;;5001504;28;20072;-37
2022/01/17 13:56:36;;;;;;;8.35;4.47;;;;;;;;;;4992112;28;20071;-38
2022/01/17 13:59:03;;;;;;;5.35;4.15;;;;;;;;;;4989585;28;20057;-37
2022/01/17 14:01:34;;;;;;;11.43;7.18;;;;;;;;;;5002639;28;20143;-39
2022/01/17 14:04:04;;;;;;;11.85;4.95;;;;;;;;;;5001229;28;20634;-37
2022/01/17 14:06:29;;;;;;;7.05;4.50;;;;;;;;;;5003154;28;20178;-35
2022/01/17 14:08:59;;;;;;;7.10;4.30;;;;;;;;;;5005052;28;20033;-37
2022/01/17 14:11:25;;;;;;;8.55;4.90;;;;;;;;;;5000178;28;20037;-38
2022/01/17 14:13:54;;;;;;;5.10;4.30;;;;;;;;;;4988608;28;20077;-38
2022/01/17 14:16:30;;;;;;;10.00;4.38;;;;;;;;;;4995834;28;20057;-38
2022/01/17 14:19:01;;;;;;;7.93;5.03;;;;;;;;;;5006258;28;20058;-37
2022/01/17 14:21:37;;;;;;;10.55;4.70;;;;;;;;;;5006608;28;20041;-38
2022/01/17 14:24:16;;;;;;;11.82;5.25;;;;;;;;;;5006821;28;20042;-41
2022/01/17 14:26:50;;;;;;;10.82;5.18;;;;;;;;;;4999640;28;20773;-38
2022/01/17 14:29:16;;;;;;;9.25;4.57;;;;;;;;;;5002944;28;20112;-39
2022/01/17 14:31:43;;;;;;;9.93;4.25;;;;;;;;;;4993182;28;20030;-39
2022/01/17 14:34:17;;;;;;;12.05;4.20;;;;;;;;;;4986831;28;20594;-37
2022/01/17 14:36:44;;;;;;;10.38;4.63;;;;;;;;;;4994061;28;20045;-34
2022/01/17 14:39:10;;;;;;;8.27;4.68;;;;;;;;;;4985261;28;20101;-36
2022/01/17 14:41:37;;;;;;;10.40;4.68;;;;;;;;;;4985264;28;20018;-37
2022/01/17 14:44:12;;;;;;;9.90;4.88;;;;;;;;;;4985685;28;20117;-36
2022/01/17 14:46:48;;;;;;;9.65;4.55;;;;;;;;;;4986631;28;20034;-39
2022/01/17 14:49:17;;;;;;;16.17;5.10;;;;;;;;;;4986781;28;20022;-38
2022/01/17 14:51:44;;;;;;;13.48;5.15;;;;;;;;;;4986074;28;20045;-36
2022/01/17 14:54:14;;;;;;;8.13;5.22;;;;;;;;;;4985852;28;20037;-38
2022/01/17 15:04:36;;;;;;;11.63;4.90;;;;;;;;;;5010351;28;20567;-38
2022/01/17 15:07:01;;;;;;;12.27;5.03;;;;;;;;;;4998818;28;20590;-37
2022/01/17 15:09:27;;;;;;;12.73;5.47;;;;;;;;;;5010457;28;20037;-36
2022/01/17 15:11:52;;;;;;;13.93;5.20;;;;;;;;;;5013363;28;20033;-38
2022/01/17 15:14:18;;;;;;;16.08;5.63;;;;;;;;;;5011376;28;20033;-39
2022/01/17 15:16:43;;;;;;;29.98;5.55;;;;;;;;;;5004653;28;20026;-40
2022/01/17 15:19:09;;;;;;;18.73;5.50;;;;;;;;;;5004727;28;20018;-37
2022/01/17 15:21:34;;;;;;;12.55;5.03;;;;;;;;;;5000795;28;20018;-37
2022/01/17 15:24:00;;;;;;;12.00;5.10;;;;;;;;;;4997632;28;20030;-39
2022/01/17 15:26:25;;;;;;;15.38;4.68;;;;;;;;;;5002943;28;20022;-38